KBHM/BHM METAR and TAF weather

Enter ICAO airport designator
Station Type Date Time Source
KBHM METAR 2018/01/23 01:43 UTC NOAA

KBHM 230143Z 20007KT 10SM BKN010 BKN015 15/14 A2991 RMK AO2 CIG 008V014 T01500139


Station Type Date Time Source
KBHM Decoded METAR 2018/01/23 01:43 UTC NOAA

BIRMINGHAM INT'L AIRPORT, AL, United States (KBHM) 33-34N 086-45W 197M
Jan 22, 2018 - 08:43 PM EST / 2018.01.23 0143 UTC
Wind: from the SSW (200 degrees) at 8 MPH (7 KT):0
Visibility: 10 mile(s):0
Sky conditions: mostly cloudy
Temperature: 59.0 F (15.0 C)
Dew Point: 57.0 F (13.9 C)
Relative Humidity: 93%
Pressure (altimeter): 29.91 in. Hg (1012 hPa)
ob: KBHM 230143Z 20007KT 10SM BKN010 BKN015 15/14 A2991 RMK AO2 CIG 008V014 T01500139
cycle: 1

Station Type Date Time Source
KBHM TAF 2018/01/22 20:06 UTC NOAA

TAF
AMD KBHM 222005Z 2220/2318 18012KT P6SM VCSH OVC015
FM230500 27007KT P6SM SKC
FM231500 28012G17KT P6SM SKC


Example: see airport list